createdAt,value
2022-09-01T16:06:28.132Z,56.40
2022-09-01T16:08:54.900Z,58.50
2022-09-01T16:11:25.870Z,57.70
2022-09-01T16:13:53.603Z,58.90
2022-09-01T16:16:46.218Z,58.60
2022-09-01T16:19:28.275Z,58.00
2022-09-01T16:22:20.820Z,56.80
2022-09-01T16:24:53.687Z,59.30
2022-09-01T16:27:25.991Z,60.00
2022-09-01T16:30:00.514Z,58.80
2022-09-01T16:32:36.084Z,57.50
2022-09-01T16:35:09.251Z,59.50
2022-09-01T16:37:59.079Z,59.40
2022-09-01T16:40:46.127Z,57.50
2022-09-01T16:43:29.583Z,58.20
2022-09-01T16:46:22.077Z,59.40
2022-09-01T16:52:33.060Z,59.60
2022-09-01T16:55:39.112Z,60.40
2022-09-01T16:58:25.376Z,58.20
2022-09-01T17:01:26.552Z,58.50
2022-09-01T17:04:05.778Z,57.30
2022-09-01T17:07:03.036Z,59.00
2022-09-01T17:09:49.105Z,59.30
2022-09-01T17:12:50.674Z,60.00
2022-09-01T17:18:23.424Z,58.30
2022-09-01T17:21:03.841Z,58.20
2022-09-01T17:23:36.487Z,58.00
2022-09-01T17:26:20.672Z,58.70
2022-09-01T17:29:03.007Z,58.80
2022-09-01T17:31:52.651Z,59.00
2022-09-01T17:34:41.993Z,58.50
2022-09-01T17:40:49.286Z,59.00
2022-09-01T17:43:47.192Z,58.10
2022-09-01T17:46:38.580Z,59.60
2022-09-01T17:49:10.145Z,60.00
2022-09-01T17:52:07.411Z,58.40
2022-09-01T17:55:04.574Z,57.90
2022-09-01T17:57:57.629Z,58.80
2022-09-01T18:00:41.061Z,57.60
2022-09-01T18:04:00.945Z,59.70
2022-09-01T18:06:41.716Z,57.90
2022-09-01T18:09:12.325Z,59.40
2022-09-01T18:12:27.825Z,59.00
2022-09-01T18:15:12.988Z,58.10
2022-09-01T18:17:47.314Z,58.40
2022-09-01T18:20:28.792Z,58.90
2022-09-01T18:23:09.462Z,59.40
2022-09-01T18:26:06.699Z,59.40
2022-09-01T18:28:41.776Z,59.50
2022-09-01T18:31:48.297Z,59.70
2022-09-01T18:34:30.014Z,60.20
2022-09-01T18:37:13.454Z,60.40
2022-09-01T18:40:12.121Z,60.70
2022-09-01T18:43:04.859Z,60.90
2022-09-01T18:46:00.181Z,60.80
2022-09-01T18:48:50.721Z,60.90
2022-09-01T18:51:49.901Z,61.20
2022-09-01T18:54:36.171Z,61.40
2022-09-01T18:57:12.991Z,61.40
2022-09-01T18:59:52.433Z,62.70
2022-09-01T19:03:01.321Z,62.70
2022-09-01T19:05:53.671Z,62.50
2022-09-01T19:08:29.116Z,62.80
2022-09-01T19:11:15.290Z,62.60
2022-09-01T19:14:17.199Z,62.70
2022-09-01T19:17:11.410Z,62.70
2022-09-01T19:19:59.014Z,63.00
2022-09-01T19:23:38.431Z,64.00
2022-09-01T19:26:09.578Z,63.50
2022-09-01T19:28:57.794Z,63.80
2022-09-01T19:31:38.664Z,64.00
2022-09-01T19:34:12.806Z,64.90
2022-09-01T19:36:53.040Z,65.00
2022-09-01T19:39:31.653Z,65.80
2022-09-01T19:42:21.773Z,65.60
2022-09-01T19:45:12.769Z,65.70
2022-09-01T19:47:58.846Z,65.30
2022-09-01T19:50:42.783Z,64.90
2022-09-01T19:53:21.115Z,64.70
2022-09-01T19:55:58.090Z,65.60
2022-09-01T19:58:50.624Z,66.30
2022-09-01T20:02:06.374Z,65.90
2022-09-01T20:04:44.845Z,65.30
2022-09-01T20:07:50.073Z,65.40
2022-09-01T20:10:30.642Z,65.60
2022-09-01T20:13:14.847Z,65.50
2022-09-01T20:16:08.608Z,65.90
2022-09-01T20:18:46.756Z,66.30
2022-09-01T20:21:20.863Z,66.80
2022-09-01T20:24:11.711Z,67.70
2022-09-01T20:26:58.297Z,67.00
2022-09-01T20:29:37.303Z,68.20
2022-09-01T20:32:09.281Z,67.60
2022-09-01T20:34:47.196Z,68.60
2022-09-01T20:37:25.806Z,67.70
2022-09-01T20:40:09.862Z,68.20
2022-09-01T20:43:05.650Z,68.00
2022-09-01T20:45:36.482Z,68.30
2022-09-01T20:48:08.652Z,69.00
2022-09-01T20:51:21.591Z,69.30
2022-09-01T20:54:13.661Z,69.30
2022-09-01T20:56:57.599Z,69.50
2022-09-01T21:00:01.788Z,70.80
2022-09-01T21:03:05.155Z,71.50
2022-09-01T21:05:59.571Z,70.00
2022-09-01T21:08:49.669Z,70.00
2022-09-01T21:11:46.102Z,70.60
2022-09-01T21:14:29.580Z,71.10
2022-09-01T21:17:13.660Z,71.10
2022-09-01T21:19:52.474Z,71.30
2022-09-01T21:22:25.568Z,71.00
2022-09-01T21:24:58.472Z,71.30
2022-09-01T21:27:31.276Z,72.30
2022-09-01T21:30:04.966Z,71.70
2022-09-01T21:32:38.962Z,72.70
2022-09-01T21:35:10.829Z,72.90
2022-09-01T21:37:41.325Z,72.20
2022-09-01T21:40:11.741Z,71.70
2022-09-01T21:42:56.518Z,72.80
2022-09-01T21:45:26.944Z,72.70
2022-09-01T21:47:56.757Z,73.00
2022-09-01T21:50:28.721Z,74.40
2022-09-01T21:53:00.580Z,73.20
2022-09-01T21:55:29.981Z,72.60
2022-09-01T21:58:08.208Z,71.90
2022-09-01T22:00:44.753Z,71.70
2022-09-01T22:03:14.597Z,71.80
2022-09-01T22:05:47.701Z,73.00
2022-09-01T22:08:19.740Z,72.50
2022-09-01T22:10:54.162Z,72.80
2022-09-01T22:13:27.660Z,73.20
2022-09-01T22:16:02.017Z,73.80
2022-09-01T22:18:35.101Z,74.10
2022-09-01T22:21:12.355Z,73.80
2022-09-01T22:23:54.370Z,72.60
2022-09-01T22:26:41.753Z,72.70
2022-09-01T22:29:20.484Z,73.00
2022-09-01T22:35:11.517Z,73.50
2022-09-01T22:37:45.014Z,73.90
2022-09-01T22:40:24.333Z,73.10
2022-09-01T22:43:00.541Z,72.60
2022-09-01T22:45:37.768Z,73.30
2022-09-01T22:59:56.794Z,72.40
2022-09-01T23:02:38.501Z,73.30
2022-09-01T23:05:16.959Z,73.80
2022-09-01T23:13:41.056Z,72.90
2022-09-01T23:16:18.505Z,72.60
2022-09-01T23:24:36.687Z,69.10
2022-09-01T23:27:10.630Z,69.00
2022-09-01T23:29:49.055Z,68.70
2022-09-01T23:32:26.231Z,68.40
2022-09-01T23:35:04.932Z,67.60
2022-09-01T23:37:52.453Z,67.00
2022-09-01T23:40:33.503Z,65.80
2022-09-01T23:43:16.271Z,67.00
2022-09-01T23:46:31.733Z,68.10
2022-09-01T23:49:06.310Z,67.20
2022-09-01T23:55:00.484Z,67.60
2022-09-01T23:57:47.751Z,67.80
